Time;durP1;ratioP1;P1;durP2;ratioP2;P2;SDS_P1;SDS_P2;PMS_P1;PMS_P2;Temp;Humidity;BMP_temperature;BMP_pressure;BME280_temperature;BME280_humidity;BME280_pressure;Samples;Min_cycle;Max_cycle;Signal;HPM_P1;HPM_P2
2023/04/21 02:00:48;;;;;;;27.62;6.70;;;;;;;;;;4825712;28;20428;-73
2023/04/21 02:03:14;;;;;;;10.68;6.22;;;;;;;;;;4268213;33;20072;-72
2023/04/21 02:05:40;;;;;;;19.95;7.35;;;;;;;;;;4251822;33;20516;-72
2023/04/21 02:08:07;;;;;;;22.65;7.45;;;;;;;;;;4235307;33;20030;-77
2023/04/21 02:10:33;;;;;;;17.48;6.28;;;;;;;;;;4235352;33;20111;-73
2023/04/21 02:12:59;;;;;;;18.17;7.68;;;;;;;;;;4236700;33;20329;-71
2023/04/21 02:15:25;;;;;;;12.40;7.07;;;;;;;;;;4235396;33;20026;-71
2023/04/21 02:17:52;;;;;;;21.95;7.32;;;;;;;;;;4236681;33;20096;-71
2023/04/21 02:20:18;;;;;;;12.30;7.20;;;;;;;;;;4236677;33;20109;-78
2023/04/21 02:22:45;;;;;;;20.52;7.45;;;;;;;;;;4235371;33;20070;-72
2023/04/21 02:25:11;;;;;;;12.18;6.93;;;;;;;;;;4249994;33;20081;-71
2023/04/21 02:27:44;;;;;;;18.58;6.57;;;;;;;;;;4249667;33;20439;-71
2023/04/21 02:30:10;;;;;;;13.68;6.65;;;;;;;;;;4248842;33;20057;-71
2023/04/21 02:32:37;;;;;;;15.73;7.97;;;;;;;;;;4246540;33;20084;-74
2023/04/21 02:35:04;;;;;;;17.08;8.15;;;;;;;;;;4250899;33;20049;-72
2023/04/21 02:37:30;;;;;;;18.12;6.43;;;;;;;;;;4262190;33;20075;-73
2023/04/21 02:39:56;;;;;;;17.00;6.82;;;;;;;;;;4265000;33;20371;-72
2023/04/21 02:42:23;;;;;;;18.52;6.95;;;;;;;;;;4262899;33;20581;-77
2023/04/21 02:44:49;;;;;;;11.68;6.47;;;;;;;;;;4263235;33;20042;-71
2023/04/21 02:47:15;;;;;;;13.00;6.90;;;;;;;;;;4264379;33;20083;-72
2023/04/21 02:49:42;;;;;;;18.52;7.30;;;;;;;;;;4264280;33;20147;-74
2023/04/21 02:52:09;;;;;;;19.27;7.05;;;;;;;;;;4263681;33;20440;-71
2023/04/21 02:54:34;;;;;;;15.60;6.75;;;;;;;;;;4249522;33;20060;-79
2023/04/21 02:57:02;;;;;;;19.40;6.75;;;;;;;;;;4237807;33;20054;-73
2023/04/21 02:59:28;;;;;;;19.92;6.43;;;;;;;;;;4235456;33;20097;-72
2023/04/21 03:01:54;;;;;;;14.43;7.07;;;;;;;;;;4235758;33;20456;-72
2023/04/21 03:04:23;;;;;;;19.17;9.48;;;;;;;;;;4247006;33;20038;-73
2023/04/21 03:06:49;;;;;;;20.55;7.78;;;;;;;;;;4247716;33;20046;-77
2023/04/21 03:09:15;;;;;;;16.67;8.05;;;;;;;;;;4233490;33;20054;-74
2023/04/21 03:11:41;;;;;;;21.37;7.10;;;;;;;;;;4235582;33;20173;-75
2023/04/21 03:14:07;;;;;;;23.60;6.62;;;;;;;;;;4235438;33;20102;-72
2023/04/21 03:16:33;;;;;;;13.93;6.45;;;;;;;;;;4235942;33;20496;-71
2023/04/21 03:19:00;;;;;;;15.88;7.53;;;;;;;;;;4220877;34;20039;-72
2023/04/21 03:21:26;;;;;;;16.87;8.02;;;;;;;;;;4221879;34;20865;-72
2023/04/21 03:23:52;;;;;;;19.92;6.78;;;;;;;;;;4221860;34;20062;-73
2023/04/21 03:26:19;;;;;;;15.55;7.05;;;;;;;;;;4210067;34;20066;-72
2023/04/21 03:28:45;;;;;;;23.60;7.80;;;;;;;;;;4207591;34;20188;-73
2023/04/21 03:31:12;;;;;;;13.05;6.93;;;;;;;;;;4205925;34;20051;-72
2023/04/21 03:33:38;;;;;;;10.27;6.20;;;;;;;;;;4207425;34;20051;-72
2023/04/21 03:36:05;;;;;;;10.45;6.53;;;;;;;;;;4207559;34;20050;-72
2023/04/21 03:38:31;;;;;;;18.33;6.72;;;;;;;;;;4206256;34;20486;-72
2023/04/21 03:40:57;;;;;;;14.48;6.95;;;;;;;;;;4233772;33;20478;-74
2023/04/21 03:43:23;;;;;;;18.73;6.47;;;;;;;;;;4247424;33;20054;-73
2023/04/21 03:45:50;;;;;;;15.02;6.28;;;;;;;;;;4246991;33;20094;-72
2023/04/21 03:48:18;;;;;;;22.08;7.97;;;;;;;;;;4237723;33;20097;-73
2023/04/21 03:50:51;;;;;;;13.23;6.97;;;;;;;;;;4248260;33;20098;-72
2023/04/21 03:53:17;;;;;;;16.17;6.32;;;;;;;;;;4251560;33;20034;-72
2023/04/21 03:55:47;;;;;;;15.75;7.68;;;;;;;;;;4252240;33;20073;-73
2023/04/21 03:58:16;;;;;;;17.55;8.25;;;;;;;;;;4252336;33;20981;-74
2023/04/21 04:00:42;;;;;;;12.00;7.10;;;;;;;;;;4251372;33;20037;-72
2023/04/21 04:03:15;;;;;;;14.00;7.25;;;;;;;;;;4250037;33;20194;-74
2023/04/21 04:05:41;;;;;;;17.67;7.68;;;;;;;;;;4265448;33;20037;-73
2023/04/21 04:08:07;;;;;;;15.70;6.93;;;;;;;;;;4266553;33;20505;-73
2023/04/21 04:10:33;;;;;;;22.98;6.70;;;;;;;;;;4266072;33;20399;-72
2023/04/21 04:13:00;;;;;;;21.12;7.78;;;;;;;;;;4264433;33;20085;-78
2023/04/21 04:15:26;;;;;;;14.05;6.90;;;;;;;;;;4265582;33;20075;-73
2023/04/21 04:17:52;;;;;;;27.33;7.95;;;;;;;;;;4265552;33;20373;-73
2023/04/21 04:20:18;;;;;;;14.50;7.20;;;;;;;;;;4266265;33;20096;-72
2023/04/21 04:22:44;;;;;;;17.35;7.35;;;;;;;;;;4266853;33;20034;-72
2023/04/21 04:25:13;;;;;;;13.55;7.37;;;;;;;;;;4264687;33;20091;-74
2023/04/21 04:27:40;;;;;;;11.05;6.70;;;;;;;;;;4266806;33;20195;-72
2023/04/21 04:30:06;;;;;;;12.02;6.87;;;;;;;;;;4265170;33;20054;-74
2023/04/21 04:32:38;;;;;;;23.80;7.15;;;;;;;;;;4253476;33;20405;-77
2023/04/21 04:35:05;;;;;;;19.05;7.03;;;;;;;;;;4250669;33;20076;-74
2023/04/21 04:37:33;;;;;;;16.92;6.87;;;;;;;;;;4252013;33;20038;-74
2023/04/21 04:39:59;;;;;;;15.50;7.95;;;;;;;;;;4245823;33;20072;-72
2023/04/21 04:42:25;;;;;;;10.45;6.75;;;;;;;;;;4237939;33;20453;-73
2023/04/21 04:44:52;;;;;;;16.08;7.00;;;;;;;;;;4235065;33;20753;-78
2023/04/21 04:47:24;;;;;;;12.82;7.12;;;;;;;;;;4238168;33;20510;-72
2023/04/21 04:49:51;;;;;;;16.25;7.32;;;;;;;;;;4250429;33;20443;-75
2023/04/21 04:52:16;;;;;;;14.27;6.78;;;;;;;;;;4252434;33;20034;-72
2023/04/21 04:54:43;;;;;;;12.00;6.68;;;;;;;;;;4253260;33;20076;-72
2023/04/21 04:57:09;;;;;;;10.93;6.90;;;;;;;;;;4250362;33;20062;-76
2023/04/21 04:59:35;;;;;;;12.70;6.43;;;;;;;;;;4251163;33;20776;-72
2023/04/21 05:02:02;;;;;;;13.80;7.10;;;;;;;;;;4251539;33;20107;-73
2023/04/21 05:04:29;;;;;;;15.38;6.22;;;;;;;;;;4251697;33;20046;-72
2023/04/21 05:06:54;;;;;;;13.68;6.72;;;;;;;;;;4249864;33;20364;-72
2023/04/21 05:09:21;;;;;;;11.68;6.35;;;;;;;;;;4248854;33;20089;-73
2023/04/21 05:11:47;;;;;;;14.45;6.62;;;;;;;;;;4251830;33;20893;-73
2023/04/21 05:14:13;;;;;;;12.48;8.20;;;;;;;;;;4263122;33;20045;-72
2023/04/21 05:16:41;;;;;;;21.05;7.12;;;;;;;;;;4265449;33;20050;-72
2023/04/21 05:19:08;;;;;;;14.82;7.65;;;;;;;;;;4264785;33;20121;-75
2023/04/21 05:21:34;;;;;;;8.90;5.68;;;;;;;;;;4254377;33;20729;-73
2023/04/21 05:24:00;;;;;;;10.95;6.68;;;;;;;;;;4250821;33;20182;-73
2023/04/21 05:26:27;;;;;;;16.62;6.40;;;;;;;;;;4250118;33;20039;-72
2023/04/21 05:28:54;;;;;;;13.65;5.93;;;;;;;;;;4258207;33;20041;-72
2023/04/21 05:31:21;;;;;;;13.13;6.78;;;;;;;;;;4261472;33;20045;-75
2023/04/21 05:33:47;;;;;;;20.80;7.40;;;;;;;;;;4263778;33;20572;-72
2023/04/21 05:36:13;;;;;;;9.82;5.95;;;;;;;;;;4265323;33;20038;-73
2023/04/21 05:38:40;;;;;;;12.48;6.72;;;;;;;;;;4264629;33;20506;-73
2023/04/21 05:41:06;;;;;;;12.02;5.95;;;;;;;;;;4264635;33;20057;-73
2023/04/21 05:43:33;;;;;;;10.10;6.25;;;;;;;;;;4263403;33;20044;-72
2023/04/21 05:46:00;;;;;;;11.75;6.78;;;;;;;;;;4269333;33;20090;-72
2023/04/21 05:48:27;;;;;;;10.27;6.28;;;;;;;;;;4267201;33;20493;-72
2023/04/21 05:50:54;;;;;;;11.25;6.18;;;;;;;;;;4264872;33;20066;-71
2023/04/21 05:53:22;;;;;;;14.75;6.50;;;;;;;;;;4264322;33;20079;-72
2023/04/21 05:55:48;;;;;;;15.95;6.12;;;;;;;;;;4261725;33;20077;-72
2023/04/21 05:58:14;;;;;;;14.85;7.37;;;;;;;;;;4263754;33;20589;-71
2023/04/21 06:00:40;;;;;;;12.15;6.55;;;;;;;;;;4262369;33;20464;-72
2023/04/21 06:03:07;;;;;;;11.12;5.97;;;;;;;;;;4263702;33;20122;-73
2023/04/21 06:05:33;;;;;;;17.60;6.55;;;;;;;;;;4261190;33;20046;-77
2023/04/21 06:08:03;;;;;;;9.10;5.75;;;;;;;;;;4260477;33;20475;-74
2023/04/21 06:10:30;;;;;;;11.70;6.43;;;;;;;;;;4261647;33;20045;-73
2023/04/21 06:12:58;;;;;;;13.93;6.65;;;;;;;;;;4250812;33;20478;-71
2023/04/21 06:15:24;;;;;;;19.87;7.05;;;;;;;;;;4264130;33;20057;-73
2023/04/21 06:17:59;;;;;;;8.82;5.45;;;;;;;;;;4264543;33;20381;-74
2023/04/21 06:20:25;;;;;;;9.73;5.97;;;;;;;;;;4265638;33;20054;-73
2023/04/21 06:22:58;;;;;;;8.57;5.45;;;;;;;;;;4266479;33;20058;-73
2023/04/21 06:25:24;;;;;;;14.15;5.90;;;;;;;;;;4266148;33;20058;-74
2023/04/21 06:27:51;;;;;;;14.63;6.15;;;;;;;;;;4266247;33;20075;-78
2023/04/21 06:30:17;;;;;;;11.27;6.00;;;;;;;;;;4265133;33;20592;-73
2023/04/21 06:32:47;;;;;;;12.18;6.15;;;;;;;;;;4266560;33;20053;-73
2023/04/21 06:35:14;;;;;;;11.70;5.12;;;;;;;;;;4265650;33;20022;-73
2023/04/21 06:37:40;;;;;;;10.40;5.47;;;;;;;;;;4265729;33;20078;-71
2023/04/21 06:40:07;;;;;;;7.62;5.12;;;;;;;;;;4264804;33;20058;-72
2023/04/21 06:42:33;;;;;;;7.70;4.80;;;;;;;;;;4266591;33;20112;-72
2023/04/21 06:44:59;;;;;;;10.02;5.05;;;;;;;;;;4235347;33;20399;-74
2023/04/21 06:47:26;;;;;;;7.15;5.50;;;;;;;;;;4234585;33;20213;-72
2023/04/21 06:49:52;;;;;;;10.63;5.68;;;;;;;;;;4235750;33;20079;-79
2023/04/21 06:52:18;;;;;;;10.70;5.75;;;;;;;;;;4234964;33;20075;-72
2023/04/21 06:54:44;;;;;;;10.60;5.40;;;;;;;;;;4236394;33;20383;-72
2023/04/21 06:57:16;;;;;;;10.30;6.03;;;;;;;;;;4236381;33;20051;-72
2023/04/21 06:59:43;;;;;;;15.60;5.05;;;;;;;;;;4236112;33;20089;-72
2023/04/21 07:02:09;;;;;;;11.68;5.95;;;;;;;;;;4230546;33;20181;-74
2023/04/21 07:04:35;;;;;;;11.52;5.62;;;;;;;;;;4226474;33;20298;-74
2023/04/21 07:07:02;;;;;;;8.15;5.50;;;;;;;;;;4229058;33;20039;-73
2023/04/21 07:09:28;;;;;;;10.30;4.75;;;;;;;;;;4228128;33;20168;-72
2023/04/21 07:11:54;;;;;;;10.23;5.15;;;;;;;;;;4224514;33;20506;-75
2023/04/21 07:14:20;;;;;;;9.43;4.95;;;;;;;;;;4226882;33;20256;-78
2023/04/21 07:16:46;;;;;;;10.60;5.00;;;;;;;;;;4239402;33;20128;-73
2023/04/21 07:19:12;;;;;;;11.95;4.85;;;;;;;;;;4246963;33;20063;-73
2023/04/21 07:21:39;;;;;;;13.00;4.43;;;;;;;;;;4253262;33;20050;-73
2023/04/21 07:24:05;;;;;;;11.50;5.82;;;;;;;;;;4252701;33;20375;-73
2023/04/21 07:26:33;;;;;;;11.23;5.93;;;;;;;;;;4235929;33;20444;-74
2023/04/21 07:28:59;;;;;;;10.65;5.07;;;;;;;;;;4243886;33;20079;-73
2023/04/21 07:31:25;;;;;;;8.40;4.82;;;;;;;;;;4258170;33;20068;-72
2023/04/21 07:33:51;;;;;;;8.32;4.72;;;;;;;;;;4257281;33;20030;-72
2023/04/21 07:36:17;;;;;;;5.60;4.30;;;;;;;;;;4260374;33;20145;-74
2023/04/21 07:38:43;;;;;;;8.45;4.75;;;;;;;;;;4256983;33;20574;-74
2023/04/21 07:41:10;;;;;;;10.23;4.35;;;;;;;;;;4257941;33;20168;-74
2023/04/21 07:43:37;;;;;;;11.05;4.43;;;;;;;;;;4222858;34;20410;-72
2023/04/21 07:46:03;;;;;;;8.68;4.28;;;;;;;;;;4195573;34;20182;-75
2023/04/21 07:48:29;;;;;;;8.00;4.00;;;;;;;;;;4194738;34;20023;-73
2023/04/21 07:50:57;;;;;;;12.70;4.15;;;;;;;;;;4193280;34;20043;-73
2023/04/21 07:53:23;;;;;;;12.18;4.07;;;;;;;;;;4196569;34;20097;-72
2023/04/21 07:55:49;;;;;;;8.88;3.90;;;;;;;;;;4195241;34;20047;-73
2023/04/21 07:58:16;;;;;;;6.45;4.37;;;;;;;;;;4196202;34;20059;-74
2023/04/21 08:00:42;;;;;;;9.52;4.10;;;;;;;;;;4194764;34;20118;-78
2023/04/21 08:03:08;;;;;;;8.20;3.22;;;;;;;;;;4195189;34;20069;-71
2023/04/21 08:05:34;;;;;;;5.80;3.22;;;;;;;;;;4196284;34;20145;-73
2023/04/21 08:08:00;;;;;;;4.82;3.53;;;;;;;;;;4195476;34;20055;-70
2023/04/21 08:10:27;;;;;;;6.28;3.33;;;;;;;;;;4195755;34;20110;-72
2023/04/21 08:12:53;;;;;;;10.73;4.30;;;;;;;;;;4195217;34;20043;-70
2023/04/21 08:15:19;;;;;;;6.93;3.50;;;;;;;;;;4213660;34;20084;-71
2023/04/21 08:17:46;;;;;;;9.57;4.03;;;;;;;;;;4257568;33;20858;-71
2023/04/21 08:20:12;;;;;;;3.83;3.45;;;;;;;;;;4267310;33;20037;-71
2023/04/21 08:22:38;;;;;;;4.20;3.35;;;;;;;;;;4268277;33;20541;-73
2023/04/21 08:25:05;;;;;;;5.32;3.25;;;;;;;;;;4265684;33;20105;-72
2023/04/21 08:27:31;;;;;;;13.85;3.33;;;;;;;;;;4261880;33;20055;-77
2023/04/21 08:29:58;;;;;;;11.82;3.17;;;;;;;;;;4264591;33;20092;-72
2023/04/21 08:32:25;;;;;;;8.13;3.17;;;;;;;;;;4265073;33;20038;-71
2023/04/21 08:34:52;;;;;;;9.13;2.95;;;;;;;;;;4262738;33;20067;-71
2023/04/21 08:37:19;;;;;;;10.32;2.75;;;;;;;;;;4263820;33;20048;-71
2023/04/21 08:39:46;;;;;;;9.38;3.97;;;;;;;;;;4264072;33;20042;-70
2023/04/21 08:42:13;;;;;;;7.72;3.15;;;;;;;;;;4261553;33;20072;-72
2023/04/21 08:44:40;;;;;;;5.93;2.62;;;;;;;;;;4254134;33;20064;-73
2023/04/21 08:47:10;;;;;;;6.18;3.28;;;;;;;;;;4252090;33;20100;-71
2023/04/21 08:49:38;;;;;;;5.78;2.50;;;;;;;;;;4264980;33;20084;-75
2023/04/21 08:52:04;;;;;;;3.40;2.65;;;;;;;;;;4265328;33;20056;-72
2023/04/21 08:54:37;;;;;;;4.00;2.85;;;;;;;;;;4266434;33;20046;-71
2023/04/21 08:57:03;;;;;;;5.22;2.58;;;;;;;;;;4254716;33;20046;-73
2023/04/21 08:59:30;;;;;;;5.22;3.00;;;;;;;;;;4249259;33;20376;-71
2023/04/21 09:02:14;;;;;;;6.37;2.55;;;;;;;;;;4253768;33;20062;-71
2023/04/21 09:04:45;;;;;;;9.90;3.28;;;;;;;;;;4269947;33;20133;-70
2023/04/21 09:07:34;;;;;;;5.43;3.00;;;;;;;;;;4265273;33;20065;-70
2023/04/21 09:10:02;;;;;;;8.75;3.80;;;;;;;;;;4253396;33;20486;-70
2023/04/21 09:12:28;;;;;;;4.57;2.65;;;;;;;;;;4251536;33;20349;-70
2023/04/21 09:14:54;;;;;;;5.93;3.12;;;;;;;;;;4236569;33;20105;-74
2023/04/21 09:17:22;;;;;;;7.18;2.62;;;;;;;;;;4238950;33;20117;-71
2023/04/21 09:19:48;;;;;;;9.18;2.50;;;;;;;;;;4240062;33;20053;-72
2023/04/21 09:22:16;;;;;;;7.57;3.40;;;;;;;;;;4241780;33;20068;-71
2023/04/21 09:24:46;;;;;;;4.95;2.83;;;;;;;;;;4229423;33;20061;-70
2023/04/21 09:27:13;;;;;;;2.42;2.08;;;;;;;;;;4224434;33;20038;-71
2023/04/21 09:29:45;;;;;;;4.18;1.80;;;;;;;;;;4225447;34;20285;-71
2023/04/21 09:32:15;;;;;;;2.47;2.28;;;;;;;;;;4225825;34;20387;-70
2023/04/21 09:34:41;;;;;;;2.45;1.65;;;;;;;;;;4223071;34;20069;-70
2023/04/21 09:37:09;;;;;;;3.17;2.45;;;;;;;;;;4222710;34;20474;-76
2023/04/21 09:39:35;;;;;;;2.78;2.17;;;;;;;;;;4225649;34;20073;-73
2023/04/21 09:42:02;;;;;;;10.50;2.10;;;;;;;;;;4237471;33;20077;-71
2023/04/21 09:44:28;;;;;;;1.52;1.40;;;;;;;;;;4209552;34;20058;-70
2023/04/21 09:46:59;;;;;;;2.42;2.20;;;;;;;;;;4209797;33;20053;-71
2023/04/21 09:49:28;;;;;;;6.70;2.20;;;;;;;;;;4194555;34;20077;-73
2023/04/21 09:51:54;;;;;;;6.68;2.12;;;;;;;;;;4195964;34;20051;-73
2023/04/21 09:54:22;;;;;;;5.22;2.50;;;;;;;;;;4195829;34;20044;-72
2023/04/21 09:56:51;;;;;;;2.03;1.83;;;;;;;;;;4196186;34;20048;-71
2023/04/21 09:59:24;;;;;;;13.27;2.65;;;;;;;;;;4194151;34;20086;-77
2023/04/21 10:02:56;;;;;;;10.05;3.22;;;;;;;;;;4444027;32;20054;-71
2023/04/21 10:05:23;;;;;;;5.12;2.72;;;;;;;;;;4424849;32;20059;-70
2023/04/21 10:07:49;;;;;;;8.30;3.53;;;;;;;;;;4394705;32;20424;-71
2023/04/21 10:10:26;;;;;;;4.47;1.40;;;;;;;;;;4394917;32;20047;-72
2023/04/21 10:12:52;;;;;;;3.17;2.37;;;;;;;;;;4396299;32;20051;-73
2023/04/21 10:15:36;;;;;;;4.22;1.73;;;;;;;;;;4380530;32;20046;-71
2023/04/21 10:18:16;;;;;;;7.12;2.20;;;;;;;;;;4380036;32;20051;-73
2023/04/21 10:20:55;;;;;;;7.03;2.62;;;;;;;;;;4379843;32;20465;-72
2023/04/21 10:23:28;;;;;;;2.97;1.90;;;;;;;;;;4379200;32;20036;-73
2023/04/21 10:26:01;;;;;;;2.67;1.95;;;;;;;;;;4363743;32;20361;-76
2023/04/21 10:28:45;;;;;;;4.05;2.20;;;;;;;;;;4350554;33;20305;-72
2023/04/21 10:31:18;;;;;;;5.55;2.17;;;;;;;;;;4350225;33;20093;-71
2023/04/21 10:34:03;;;;;;;5.78;2.37;;;;;;;;;;4347872;33;20054;-79
2023/04/21 10:36:30;;;;;;;3.97;2.08;;;;;;;;;;4357885;32;20051;-71
2023/04/21 10:38:59;;;;;;;5.35;2.12;;;;;;;;;;4365325;32;20566;-71
2023/04/21 10:41:27;;;;;;;3.15;2.37;;;;;;;;;;4362125;32;20073;-79
2023/04/21 10:43:52;;;;;;;5.22;2.25;;;;;;;;;;4334364;33;20070;-70
2023/04/21 10:46:35;;;;;;;3.30;2.65;;;;;;;;;;4342095;33;20515;-73
2023/04/21 10:49:01;;;;;;;;;;;;;;;;;;4350856;33;20452;-71
2023/04/21 10:51:29;;;;;;;2.22;2.05;;;;;;;;;;4317972;33;20459;-72
2023/04/21 10:53:55;;;;;;;7.10;2.33;;;;;;;;;;4320998;33;20346;-71
2023/04/21 10:56:21;;;;;;;2.90;2.15;;;;;;;;;;4323349;33;20363;-70
2023/04/21 10:58:48;;;;;;;2.83;2.00;;;;;;;;;;4335418;33;20057;-72
2023/04/21 11:01:15;;;;;;;4.75;2.80;;;;;;;;;;4468713;27;20170;-73
2023/04/21 11:03:41;;;;;;;2.10;1.90;;;;;;;;;;4309526;33;20287;-72
2023/04/21 11:06:19;;;;;;;3.33;2.03;;;;;;;;;;4319630;33;20041;-71
2023/04/21 11:08:54;;;;;;;2.90;1.98;;;;;;;;;;4325008;33;20062;-77
2023/04/21 11:11:25;;;;;;;4.07;1.60;;;;;;;;;;4320961;33;20352;-71
2023/04/21 11:13:52;;;;;;;1.87;1.75;;;;;;;;;;4314408;33;20033;-71
2023/04/21 11:16:19;;;;;;;1.80;1.70;;;;;;;;;;4326951;33;20377;-71
2023/04/21 11:18:45;;;;;;;6.32;2.00;;;;;;;;;;4325845;33;20044;-72
2023/04/21 11:21:16;;;;;;;4.12;1.85;;;;;;;;;;4326655;33;20331;-71
2023/04/21 11:23:51;;;;;;;2.60;2.12;;;;;;;;;;4309625;33;20063;-76
2023/04/21 11:26:28;;;;;;;3.33;2.37;;;;;;;;;;4323582;33;20056;-72
2023/04/21 11:28:53;;;;;;;;;;;;;;;;;;4323523;33;20444;-73
2023/04/21 11:31:20;;;;;;;1.90;1.80;;;;;;;;;;4323843;33;20288;-71
2023/04/21 11:33:46;;;;;;;2.25;2.00;;;;;;;;;;4341495;32;20183;-71
2023/04/21 11:36:12;;;;;;;2.85;2.28;;;;;;;;;;4335863;33;20070;-73
2023/04/21 11:38:45;;;;;;;2.03;1.83;;;;;;;;;;4334525;33;20058;-73
2023/04/21 11:41:11;;;;;;;2.87;2.47;;;;;;;;;;4334921;33;20056;-73
2023/04/21 11:43:37;;;;;;;2.37;2.20;;;;;;;;;;4334563;33;20468;-74
2023/04/21 11:46:10;;;;;;;2.42;2.10;;;;;;;;;;4335766;33;20052;-72
2023/04/21 11:48:36;;;;;;;2.53;1.98;;;;;;;;;;4330030;33;20062;-72
2023/04/21 11:51:02;;;;;;;2.25;2.05;;;;;;;;;;4333858;33;20070;-74
2023/04/21 11:53:28;;;;;;;3.30;2.05;;;;;;;;;;4335402;33;20402;-72
2023/04/21 11:56:01;;;;;;;7.45;2.55;;;;;;;;;;4365290;32;20044;-77
2023/04/21 11:58:27;;;;;;;2.70;1.85;;;;;;;;;;4351071;32;20043;-73
2023/04/21 12:00:53;;;;;;;3.65;2.17;;;;;;;;;;4351417;32;20056;-73
2023/04/21 12:03:20;;;;;;;4.20;2.35;;;;;;;;;;4351555;32;20043;-71
2023/04/21 12:05:46;;;;;;;11.70;2.92;;;;;;;;;;4353198;32;20044;-71
2023/04/21 12:08:13;;;;;;;4.85;3.25;;;;;;;;;;4353436;32;20058;-71
2023/04/21 12:10:43;;;;;;;3.47;2.25;;;;;;;;;;4349358;32;20040;-69
2023/04/21 12:13:09;;;;;;;3.65;2.40;;;;;;;;;;4349686;32;20052;-72
2023/04/21 12:15:35;;;;;;;5.05;1.83;;;;;;;;;;4347057;32;20441;-72
2023/04/21 12:18:01;;;;;;;5.35;2.12;;;;;;;;;;4347946;32;20069;-71
2023/04/21 12:20:28;;;;;;;2.92;2.15;;;;;;;;;;4350426;32;20059;-78
2023/04/21 12:22:55;;;;;;;8.27;2.00;;;;;;;;;;4336177;32;20055;-72
2023/04/21 12:25:22;;;;;;;3.30;1.83;;;;;;;;;;4336897;33;20131;-74
2023/04/21 12:27:51;;;;;;;3.90;2.37;;;;;;;;;;4338963;32;20088;-71
2023/04/21 12:30:18;;;;;;;3.95;1.92;;;;;;;;;;4339788;32;20479;-77
2023/04/21 12:32:46;;;;;;;2.95;1.65;;;;;;;;;;4342592;32;20040;-72
2023/04/21 12:35:12;;;;;;;4.07;2.70;;;;;;;;;;4344231;32;20043;-72
2023/04/21 12:37:39;;;;;;;2.25;2.05;;;;;;;;;;4345322;32;20210;-71
2023/04/21 12:40:06;;;;;;;3.53;2.05;;;;;;;;;;4342155;32;20045;-73
2023/04/21 12:42:33;;;;;;;8.48;2.25;;;;;;;;;;4319593;33;20032;-72
2023/04/21 12:45:00;;;;;;;3.33;1.80;;;;;;;;;;4320783;33;20364;-71
2023/04/21 12:47:26;;;;;;;6.55;2.05;;;;;;;;;;4321336;33;20466;-72
2023/04/21 12:49:52;;;;;;;6.12;2.53;;;;;;;;;;4321992;33;20052;-72
2023/04/21 12:52:18;;;;;;;2.10;1.92;;;;;;;;;;4322291;33;20078;-73
2023/04/21 12:54:45;;;;;;;4.45;2.50;;;;;;;;;;4330866;33;20036;-72
2023/04/21 12:57:11;;;;;;;2.95;2.60;;;;;;;;;;4335386;33;20966;-73
2023/04/21 12:59:37;;;;;;;4.05;2.28;;;;;;;;;;4335783;33;20056;-73
2023/04/21 13:02:04;;;;;;;2.33;2.10;;;;;;;;;;4332483;33;20716;-72
2023/04/21 13:04:30;;;;;;;4.43;2.53;;;;;;;;;;4335294;33;20788;-74
2023/04/21 13:06:58;;;;;;;4.30;2.15;;;;;;;;;;4333728;33;20066;-72
2023/04/21 13:09:24;;;;;;;1.75;1.62;;;;;;;;;;4336008;33;20115;-71
2023/04/21 13:11:50;;;;;;;4.20;2.05;;;;;;;;;;4335752;33;20090;-72
2023/04/21 13:14:17;;;;;;;2.83;2.05;;;;;;;;;;4335940;33;20051;-72
2023/04/21 13:16:43;;;;;;;6.03;2.35;;;;;;;;;;4334652;33;20036;-72
2023/04/21 13:19:09;;;;;;;2.67;2.42;;;;;;;;;;4334038;33;20312;-73
2023/04/21 13:21:36;;;;;;;8.10;2.42;;;;;;;;;;4345644;32;20088;-72
2023/04/21 13:24:02;;;;;;;3.47;1.80;;;;;;;;;;4359439;32;20197;-75
2023/04/21 13:26:30;;;;;;;2.20;2.00;;;;;;;;;;4362461;32;20178;-76
2023/04/21 13:28:56;;;;;;;2.60;2.30;;;;;;;;;;4360362;32;20071;-72
2023/04/21 13:31:22;;;;;;;2.55;1.92;;;;;;;;;;4355962;32;20440;-72
2023/04/21 13:33:48;;;;;;;6.22;1.85;;;;;;;;;;4360835;32;20628;-73
2023/04/21 13:36:14;;;;;;;2.75;1.98;;;;;;;;;;4360037;32;20214;-73
2023/04/21 13:38:41;;;;;;;4.43;2.30;;;;;;;;;;4360235;32;20133;-72
2023/04/21 13:41:07;;;;;;;3.08;1.83;;;;;;;;;;4359464;32;20035;-72
2023/04/21 13:43:33;;;;;;;1.87;1.77;;;;;;;;;;4357664;32;20028;-72
2023/04/21 13:46:00;;;;;;;3.50;2.10;;;;;;;;;;4358459;32;20090;-72
2023/04/21 13:48:28;;;;;;;2.65;2.28;;;;;;;;;;4359066;32;20031;-73
2023/04/21 13:50:55;;;;;;;3.15;2.28;;;;;;;;;;4356947;32;20043;-73
2023/04/21 13:53:21;;;;;;;6.97;2.30;;;;;;;;;;4357374;32;20091;-78
2023/04/21 13:55:55;;;;;;;2.95;2.12;;;;;;;;;;4350824;32;20163;-72
2023/04/21 13:58:22;;;;;;;2.05;1.85;;;;;;;;;;4345289;32;20471;-72
2023/04/21 14:00:48;;;;;;;4.47;1.50;;;;;;;;;;4346500;33;20083;-72
2023/04/21 14:03:15;;;;;;;6.53;1.95;;;;;;;;;;4358485;32;20089;-72
2023/04/21 14:05:41;;;;;;;4.28;2.10;;;;;;;;;;4363789;32;20063;-71
2023/04/21 14:08:07;;;;;;;3.17;1.50;;;;;;;;;;4364376;32;20106;-75
2023/04/21 14:10:34;;;;;;;6.95;1.90;;;;;;;;;;4366683;32;20062;-72
2023/04/21 14:13:00;;;;;;;8.85;2.03;;;;;;;;;;4366638;32;20130;-71
2023/04/21 14:15:26;;;;;;;1.80;1.58;;;;;;;;;;4364121;32;20388;-78
2023/04/21 14:17:52;;;;;;;2.22;1.75;;;;;;;;;;4366061;32;20035;-71
2023/04/21 14:20:19;;;;;;;1.95;1.85;;;;;;;;;;4335513;33;20450;-72
2023/04/21 14:22:45;;;;;;;4.95;3.12;;;;;;;;;;4335286;33;20043;-71
2023/04/21 14:25:11;;;;;;;1.70;1.58;;;;;;;;;;4336761;33;20501;-74
2023/04/21 14:27:37;;;;;;;2.62;2.15;;;;;;;;;;4335816;33;20062;-71
2023/04/21 14:30:04;;;;;;;2.87;1.90;;;;;;;;;;4335471;33;20054;-71
2023/04/21 14:32:30;;;;;;;2.25;1.98;;;;;;;;;;4336396;33;20040;-72
2023/04/21 14:34:58;;;;;;;7.75;1.80;;;;;;;;;;4336757;33;20058;-73
2023/04/21 14:37:25;;;;;;;1.77;1.67;;;;;;;;;;4335788;33;20031;-72
2023/04/21 14:39:51;;;;;;;1.70;1.60;;;;;;;;;;4333802;33;20061;-80
2023/04/21 14:42:17;;;;;;;5.30;2.15;;;;;;;;;;4324126;33;20294;-73
2023/04/21 14:44:44;;;;;;;2.60;1.90;;;;;;;;;;4333058;33;20517;-72
2023/04/21 14:47:11;;;;;;;17.27;1.92;;;;;;;;;;4334602;33;20088;-72
2023/04/21 14:49:37;;;;;;;2.15;1.90;;;;;;;;;;4339339;33;20053;-71
2023/04/21 14:52:03;;;;;;;2.47;1.60;;;;;;;;;;4353745;32;20031;-73
2023/04/21 14:54:30;;;;;;;3.65;2.15;;;;;;;;;;4363722;32;20218;-72
2023/04/21 14:56:56;;;;;;;1.98;1.87;;;;;;;;;;4348969;32;20115;-72
2023/04/21 14:59:23;;;;;;;4.50;1.90;;;;;;;;;;4347415;32;20136;-73
2023/04/21 15:01:49;;;;;;;2.90;1.80;;;;;;;;;;4351113;32;20444;-74
2023/04/21 15:04:15;;;;;;;3.55;2.10;;;;;;;;;;4350072;32;20077;-77
2023/04/21 15:06:41;;;;;;;3.37;1.95;;;;;;;;;;4353149;32;20729;-72
2023/04/21 15:09:08;;;;;;;2.10;1.90;;;;;;;;;;4354488;32;20055;-75
2023/04/21 15:11:34;;;;;;;2.45;2.10;;;;;;;;;;4353510;32;20043;-73
2023/04/21 15:14:00;;;;;;;1.98;1.90;;;;;;;;;;4351477;32;20228;-79
2023/04/21 15:16:26;;;;;;;2.92;1.92;;;;;;;;;;4353433;32;20055;-72
2023/04/21 15:18:54;;;;;;;1.92;1.70;;;;;;;;;;4353723;32;20043;-72
2023/04/21 15:21:20;;;;;;;2.72;1.83;;;;;;;;;;4354253;32;20040;-72
2023/04/21 15:23:46;;;;;;;6.82;1.83;;;;;;;;;;4352746;32;20495;-72
2023/04/21 15:26:12;;;;;;;7.00;2.75;;;;;;;;;;4324131;33;20036;-78
2023/04/21 15:28:38;;;;;;;6.37;1.90;;;;;;;;;;4335979;33;20035;-72
2023/04/21 15:31:05;;;;;;;2.12;1.90;;;;;;;;;;4339661;33;20048;-74
2023/04/21 15:33:32;;;;;;;5.12;1.90;;;;;;;;;;4339641;33;20028;-72
2023/04/21 15:35:58;;;;;;;2.25;2.05;;;;;;;;;;4338871;33;20075;-72
2023/04/21 15:38:24;;;;;;;10.00;2.15;;;;;;;;;;4336084;33;20039;-72
2023/04/21 15:40:50;;;;;;;7.60;2.12;;;;;;;;;;4309492;33;20442;-73
2023/04/21 15:43:16;;;;;;;1.70;1.65;;;;;;;;;;4294940;33;20131;-73
2023/04/21 15:45:43;;;;;;;5.07;2.10;;;;;;;;;;4296508;33;20084;-72
2023/04/21 15:48:11;;;;;;;6.47;2.12;;;;;;;;;;4298234;33;20066;-71
2023/04/21 15:50:37;;;;;;;2.50;2.30;;;;;;;;;;4295842;33;20034;-73
2023/04/21 15:53:07;;;;;;;2.75;2.15;;;;;;;;;;4296745;33;20712;-72
2023/04/21 15:55:33;;;;;;;3.45;2.12;;;;;;;;;;4296216;33;20148;-72
2023/04/21 15:57:59;;;;;;;7.07;2.35;;;;;;;;;;4317160;33;20201;-71
2023/04/21 16:00:26;;;;;;;9.60;1.92;;;;;;;;;;4322116;33;20092;-79
2023/04/21 16:02:52;;;;;;;2.33;2.12;;;;;;;;;;4323795;33;20056;-73
2023/04/21 16:05:18;;;;;;;7.93;2.15;;;;;;;;;;4325513;33;20050;-73
2023/04/21 16:07:44;;;;;;;2.87;1.75;;;;;;;;;;4323705;33;20202;-72
2023/04/21 16:10:11;;;;;;;2.62;1.98;;;;;;;;;;4322875;33;20087;-72
2023/04/21 16:12:38;;;;;;;6.07;2.20;;;;;;;;;;4321924;33;20406;-71
2023/04/21 16:15:06;;;;;;;4.03;2.50;;;;;;;;;;4322536;33;20123;-73
2023/04/21 16:17:35;;;;;;;5.78;2.53;;;;;;;;;;4293738;33;20137;-72
2023/04/21 16:20:03;;;;;;;3.12;2.05;;;;;;;;;;4307361;33;20046;-72
2023/04/21 16:22:30;;;;;;;5.43;2.80;;;;;;;;;;4306358;33;20064;-77
2023/04/21 16:24:57;;;;;;;13.57;2.50;;;;;;;;;;4308335;33;20044;-71
2023/04/21 16:27:24;;;;;;;6.30;2.50;;;;;;;;;;4307726;33;20049;-72
2023/04/21 16:29:50;;;;;;;3.75;1.95;;;;;;;;;;4307796;33;20109;-71
2023/04/21 16:32:17;;;;;;;3.65;1.90;;;;;;;;;;4308253;33;20044;-71
2023/04/21 16:34:43;;;;;;;2.35;2.15;;;;;;;;;;4279605;33;20056;-76
2023/04/21 16:37:09;;;;;;;2.72;1.98;;;;;;;;;;4287293;33;20049;-75
2023/04/21 16:39:35;;;;;;;6.18;2.53;;;;;;;;;;4287447;33;20049;-72